createdAt,value
2019-02-11T00:00:51.113Z,66.25
2019-02-11T00:01:59.119Z,66.63
2019-02-11T00:03:07.490Z,67.01
2019-02-11T00:04:15.360Z,68.52
2019-02-11T00:05:23.422Z,66.44
2019-02-11T00:06:31.360Z,66.92
2019-02-11T00:07:39.442Z,66.82
2019-02-11T00:08:47.476Z,67.49
2019-02-11T00:09:55.564Z,68.62
2019-02-11T00:11:03.592Z,68.62
2019-02-11T00:12:11.656Z,68.90
2019-02-11T00:13:19.718Z,69.76
2019-02-11T00:14:27.839Z,73.54
2019-02-11T00:15:35.811Z,73.68
2019-02-11T00:16:43.878Z,75.19
2019-02-11T00:17:51.912Z,73.01
2019-02-11T00:18:59.978Z,72.92
2019-02-11T00:20:08.036Z,72.16
2019-02-11T00:21:16.086Z,72.53
2019-02-11T00:22:24.165Z,72.63
2019-02-11T00:23:32.181Z,75.00
2019-02-11T00:24:40.269Z,73.20
2019-02-11T00:25:48.307Z,73.58
2019-02-11T00:26:56.388Z,72.73
2019-02-11T00:28:04.444Z,73.73
2019-02-11T00:29:12.515Z,75.76
2019-02-11T00:30:20.555Z,73.11
2019-02-11T00:31:28.652Z,74.24
2019-02-11T00:32:36.669Z,74.71
2019-02-11T00:33:44.716Z,74.62
2019-02-11T00:34:52.791Z,75.19
2019-02-11T00:36:00.848Z,75.00
2019-02-11T00:37:08.893Z,74.62
2019-02-11T00:38:16.962Z,74.15
2019-02-11T00:39:25.013Z,74.52
2019-02-11T00:40:33.073Z,74.05
2019-02-11T00:41:41.123Z,74.33
2019-02-11T00:42:49.177Z,73.86
2019-02-11T00:43:57.232Z,74.43
2019-02-11T00:45:05.295Z,72.82
2019-02-11T00:46:13.370Z,73.20
2019-02-11T00:47:21.402Z,73.58
2019-02-11T00:48:29.488Z,75.09
2019-02-11T00:49:37.523Z,74.81
2019-02-11T00:50:45.572Z,75.47
2019-02-11T00:51:53.655Z,74.90
2019-02-11T00:53:01.685Z,75.95
2019-02-11T00:54:09.757Z,73.11
2019-02-11T00:55:17.794Z,72.53
2019-02-11T00:56:25.866Z,72.53
2019-02-11T00:57:33.927Z,74.81
2019-02-11T00:58:41.959Z,74.24
2019-02-11T00:59:50.051Z,74.81
2019-02-11T01:00:58.109Z,73.96
2019-02-11T01:02:06.153Z,73.77
2019-02-11T01:03:14.228Z,76.89
2019-02-11T01:04:22.253Z,76.14
2019-02-11T01:05:30.321Z,77.65
2019-02-11T01:06:38.376Z,76.51
2019-02-11T01:07:46.437Z,76.80
2019-02-11T01:08:54.516Z,77.84
2019-02-11T01:10:02.551Z,76.61
2019-02-11T01:11:10.608Z,76.51
2019-02-11T01:12:18.680Z,75.85
2019-02-11T01:13:27.958Z,75.00
2019-02-11T01:14:34.789Z,77.37
2019-02-11T01:15:42.857Z,75.47
2019-02-11T01:16:50.914Z,81.25
2019-02-11T01:17:58.979Z,78.03
2019-02-11T01:19:07.020Z,77.75
2019-02-11T01:20:15.086Z,78.50
2019-02-11T01:21:23.132Z,75.57
2019-02-11T01:22:31.186Z,74.90
2019-02-11T01:23:39.241Z,73.58
2019-02-11T01:24:47.296Z,75.19
2019-02-11T01:25:55.374Z,72.34
2019-02-11T01:27:03.404Z,71.50
2019-02-11T01:28:11.485Z,72.25
2019-02-11T01:29:19.546Z,68.08
2019-02-11T01:30:27.592Z,66.86
2019-02-11T01:31:35.664Z,63.98
2019-02-11T01:32:43.697Z,63.04
2019-02-11T01:33:51.750Z,63.13
2019-02-11T01:34:59.859Z,60.96
2019-02-11T01:36:07.894Z,59.34
2019-02-11T01:37:15.934Z,62.94
2019-02-11T01:38:23.985Z,61.33
2019-02-11T01:39:32.038Z,58.97
2019-02-11T01:40:40.113Z,64.17
2019-02-11T01:41:48.168Z,68.52
2019-02-11T01:42:56.222Z,66.53
2019-02-11T01:44:04.263Z,66.53
2019-02-11T01:45:12.312Z,66.35
2019-02-11T01:46:20.390Z,72.12
2019-02-11T01:47:28.506Z,70.51
2019-02-11T01:48:36.498Z,69.38
2019-02-11T01:49:44.578Z,68.62
2019-02-11T01:50:52.626Z,70.51
2019-02-11T01:52:00.669Z,70.42
2019-02-11T01:53:08.733Z,70.61
2019-02-11T01:54:16.787Z,68.81
2019-02-11T01:55:24.853Z,66.25
2019-02-11T01:56:32.898Z,64.74
2019-02-11T01:57:40.967Z,63.79
2019-02-11T01:58:49.021Z,62.09
2019-02-11T01:59:57.086Z,66.63
2019-02-11T02:01:05.158Z,64.93
2019-02-11T02:02:13.236Z,62.85
2019-02-11T02:03:21.254Z,62.28
2019-02-11T02:04:29.291Z,62.09
2019-02-11T02:05:37.396Z,62.18
2019-02-11T02:06:45.419Z,60.00
2019-02-11T02:07:53.478Z,59.63
2019-02-11T02:09:01.501Z,58.11
2019-02-11T02:10:09.596Z,57.26
2019-02-11T02:11:17.645Z,57.45
2019-02-11T02:12:25.697Z,59.72
2019-02-11T02:13:33.769Z,58.11
2019-02-11T02:14:41.822Z,59.16
2019-02-11T02:15:49.889Z,59.53
2019-02-11T02:16:57.917Z,59.06
2019-02-11T02:18:05.991Z,59.06
2019-02-11T02:19:14.071Z,58.21
2019-02-11T02:20:22.087Z,58.30
2019-02-11T02:21:30.155Z,56.98
2019-02-11T02:22:38.211Z,57.83
2019-02-11T02:23:46.261Z,56.70
2019-02-11T02:24:54.312Z,56.60
2019-02-11T02:26:02.377Z,57.73
2019-02-11T02:27:10.460Z,57.26
2019-02-11T02:28:18.482Z,59.25
2019-02-11T02:29:26.549Z,60.00
2019-02-11T02:30:34.662Z,69.38
2019-02-11T02:31:42.670Z,68.05
2019-02-11T02:32:50.712Z,65.02
2019-02-11T02:33:58.803Z,63.23
2019-02-11T02:35:06.849Z,67.30
2019-02-11T02:36:14.895Z,65.40
2019-02-11T02:37:22.948Z,63.23
2019-02-11T02:38:31.020Z,62.09
2019-02-11T02:39:39.071Z,63.42
2019-02-11T02:40:47.245Z,61.71
2019-02-11T02:41:55.176Z,65.69
2019-02-11T02:43:03.239Z,68.33
2019-02-11T02:44:11.278Z,67.77
2019-02-11T02:45:19.349Z,65.12
2019-02-11T02:46:27.412Z,64.07
2019-02-11T02:47:35.481Z,63.23
2019-02-11T02:48:43.524Z,67.11
2019-02-11T02:49:51.569Z,66.73
2019-02-11T02:50:59.647Z,71.74
2019-02-11T02:52:07.693Z,70.51
2019-02-11T02:53:15.755Z,73.45
2019-02-11T02:54:23.796Z,74.96
2019-02-11T02:55:31.859Z,74.30
2019-02-11T02:56:39.921Z,69.76
2019-02-11T02:57:47.972Z,67.77
2019-02-11T02:58:56.038Z,66.16
2019-02-11T03:00:04.095Z,64.07
2019-02-11T03:01:12.134Z,63.51
2019-02-11T03:02:20.194Z,62.75
2019-02-11T03:03:28.299Z,60.86
2019-02-11T03:04:36.335Z,60.77
2019-02-11T03:05:44.386Z,59.91
2019-02-11T03:06:52.455Z,57.73
2019-02-11T03:08:00.495Z,57.83
2019-02-11T03:09:08.568Z,59.25
2019-02-11T03:10:16.604Z,56.98
2019-02-11T03:11:24.667Z,57.92
2019-02-11T03:12:32.708Z,56.22
2019-02-11T03:13:40.766Z,55.27
2019-02-11T03:14:48.832Z,55.18
2019-02-11T03:15:56.882Z,56.70
2019-02-11T03:17:04.950Z,55.65
2019-02-11T03:18:13.001Z,55.94
2019-02-11T03:19:21.050Z,55.27
2019-02-11T03:20:29.505Z,59.16
2019-02-11T03:21:37.214Z,59.06
2019-02-11T03:22:45.228Z,59.25
2019-02-11T03:23:53.487Z,58.68
2019-02-11T03:25:01.650Z,59.81
2019-02-11T03:26:09.389Z,58.49
2019-02-11T03:27:17.460Z,58.59
2019-02-11T03:28:25.675Z,58.78
2019-02-11T03:29:33.573Z,58.87
2019-02-11T03:30:41.592Z,59.53
2019-02-11T03:31:49.696Z,59.25
2019-02-11T03:32:57.728Z,59.81
2019-02-11T03:34:05.791Z,57.07
2019-02-11T03:35:13.852Z,56.32
2019-02-11T03:36:21.900Z,58.21
2019-02-11T03:37:30.158Z,57.45
2019-02-11T03:38:38.072Z,58.78
2019-02-11T03:39:46.133Z,59.63
2019-02-11T03:40:54.150Z,62.94
2019-02-11T03:42:02.175Z,62.28
2019-02-11T03:43:10.233Z,62.09
2019-02-11T03:44:18.290Z,63.04
2019-02-11T03:45:26.401Z,64.93
2019-02-11T03:46:34.416Z,61.61
2019-02-11T03:47:42.559Z,58.87
2019-02-11T03:48:50.517Z,57.54
2019-02-11T03:49:58.587Z,66.44
2019-02-11T03:51:06.644Z,71.08
2019-02-11T03:52:14.677Z,72.97
2019-02-11T03:53:22.760Z,70.98
2019-02-11T03:54:31.062Z,69.09
2019-02-11T03:55:38.894Z,68.24
2019-02-11T03:56:46.961Z,70.98
2019-02-11T03:57:54.981Z,69.57
2019-02-11T03:59:03.046Z,70.51
2019-02-11T04:00:11.091Z,66.82
2019-02-11T04:01:19.171Z,66.16
2019-02-11T04:02:27.202Z,65.21
2019-02-11T04:03:35.264Z,66.31
2019-02-11T04:04:43.318Z,71.61
2019-02-11T04:05:51.368Z,70.23
2019-02-11T04:06:59.449Z,68.71
2019-02-11T04:08:07.526Z,65.18
2019-02-11T04:09:15.551Z,64.90
2019-02-11T04:10:23.767Z,63.85
2019-02-11T04:11:31.644Z,61.87
2019-02-11T04:12:39.711Z,58.78
2019-02-11T04:13:47.775Z,56.57
2019-02-11T04:14:55.822Z,56.57
2019-02-11T04:16:03.883Z,55.06
2019-02-11T04:17:11.918Z,53.83
2019-02-11T04:18:19.981Z,54.11
2019-02-11T04:19:28.053Z,57.23
2019-02-11T04:20:36.113Z,54.39
2019-02-11T04:21:44.183Z,53.26
2019-02-11T04:22:52.204Z,64.52
2019-02-11T04:24:00.263Z,61.58
2019-02-11T04:25:08.340Z,66.41
2019-02-11T04:26:16.393Z,70.89
2019-02-11T04:27:24.469Z,67.20
2019-02-11T04:28:32.586Z,65.31
2019-02-11T04:29:40.629Z,67.96
2019-02-11T04:30:48.859Z,71.74
2019-02-11T04:31:56.706Z,75.40
2019-02-11T04:33:04.813Z,77.61
2019-02-11T04:34:12.916Z,74.77
2019-02-11T04:35:20.869Z,77.14
2019-02-11T04:36:28.923Z,74.83
2019-02-11T04:37:37.116Z,79.79
2019-02-11T04:38:45.214Z,80.98
2019-02-11T04:39:53.091Z,86.94
2019-02-11T04:41:01.131Z,84.10
2019-02-11T04:42:09.382Z,83.25
2019-02-11T04:43:17.621Z,78.61
2019-02-11T04:44:33.759Z,78.71
2019-02-11T04:45:33.357Z,80.69
2019-02-11T04:46:41.403Z,79.75
2019-02-11T04:47:49.654Z,78.90
2019-02-11T04:48:57.499Z,77.39
2019-02-11T04:50:05.568Z,72.66
2019-02-11T04:51:13.646Z,73.32
2019-02-11T04:52:21.663Z,74.55
2019-02-11T04:53:29.938Z,73.03
2019-02-11T04:54:37.803Z,71.80
2019-02-11T04:55:45.870Z,74.07
2019-02-11T04:56:53.918Z,72.56
2019-02-11T04:58:01.965Z,72.18
2019-02-11T04:59:10.142Z,69.82
2019-02-11T05:00:18.074Z,68.68
2019-02-11T05:01:26.335Z,68.40
2019-02-11T05:02:34.240Z,70.20
2019-02-11T05:03:42.398Z,67.55
2019-02-11T05:04:50.379Z,66.98
2019-02-11T05:05:58.576Z,66.60
2019-02-11T05:07:06.530Z,68.12
2019-02-11T05:08:14.525Z,64.90
2019-02-11T05:09:22.996Z,69.25
2019-02-11T05:10:30.586Z,65.69
2019-02-11T05:11:38.651Z,62.37
2019-02-11T05:12:46.764Z,60.26
2019-02-11T05:13:55.161Z,58.84
2019-02-11T05:15:02.798Z,61.11
2019-02-11T05:16:11.012Z,59.98
2019-02-11T05:17:18.938Z,56.20
2019-02-11T05:18:27.125Z,54.68
2019-02-11T05:19:35.087Z,51.93
2019-02-11T05:20:43.186Z,53.83
2019-02-11T05:21:51.188Z,51.46
2019-02-11T05:22:59.213Z,49.29
2019-02-11T05:24:07.257Z,48.44
2019-02-11T05:25:15.307Z,55.53
2019-02-11T05:26:23.386Z,49.57
2019-02-11T05:27:31.475Z,51.56
2019-02-11T05:28:39.612Z,49.19
2019-02-11T05:29:47.848Z,45.98
2019-02-11T05:30:55.647Z,44.74
2019-02-11T05:32:03.655Z,42.47
2019-02-11T05:33:11.759Z,42.57
2019-02-11T05:34:19.766Z,45.31
2019-02-11T05:35:27.803Z,57.80
2019-02-11T05:36:35.979Z,57.80
2019-02-11T05:37:44.253Z,54.87
2019-02-11T05:38:51.992Z,55.44
2019-02-11T05:40:00.248Z,53.83
2019-02-11T05:41:08.090Z,59.60
2019-02-11T05:42:16.156Z,59.50
2019-02-11T05:43:24.194Z,63.39
2019-02-11T05:44:32.247Z,65.37
2019-02-11T05:45:40.319Z,64.80
2019-02-11T05:46:48.372Z,65.37
2019-02-11T05:47:56.425Z,67.07
2019-02-11T05:49:04.497Z,65.84
2019-02-11T05:50:12.540Z,66.13
2019-02-11T05:51:20.591Z,67.83
2019-02-11T05:52:28.665Z,75.40
2019-02-11T05:53:36.690Z,71.90
2019-02-11T05:54:44.768Z,69.34
2019-02-11T05:55:52.819Z,73.22
2019-02-11T05:57:00.872Z,69.82
2019-02-11T05:58:08.945Z,69.44
2019-02-11T05:59:17.028Z,70.29
2019-02-11T06:00:25.074Z,72.05
2019-02-11T06:01:33.094Z,77.86
2019-02-11T06:02:41.143Z,76.68
2019-02-11T06:03:49.216Z,77.67
2019-02-11T06:04:57.278Z,75.87
2019-02-11T06:06:05.336Z,78.61
2019-02-11T06:07:13.393Z,78.14
2019-02-11T06:08:21.446Z,75.02
2019-02-11T06:09:29.487Z,77.95
2019-02-11T06:10:37.572Z,77.20
2019-02-11T06:11:45.602Z,78.61
2019-02-11T06:12:53.657Z,81.26
2019-02-11T06:14:01.689Z,75.17
2019-02-11T06:15:09.794Z,75.12
2019-02-11T06:16:17.822Z,75.02
2019-02-11T06:17:25.884Z,77.95
2019-02-11T06:18:33.926Z,71.23
2019-02-11T06:19:41.974Z,74.64
2019-02-11T06:20:50.072Z,77.29
2019-02-11T06:21:58.099Z,74.83
2019-02-11T06:23:06.170Z,75.21
2019-02-11T06:24:14.200Z,69.44
2019-02-11T06:25:22.257Z,71.33
2019-02-11T06:26:30.315Z,69.15
2019-02-11T06:27:38.435Z,69.06
2019-02-11T06:28:46.436Z,67.45
2019-02-11T06:29:54.489Z,65.37
2019-02-11T06:31:02.585Z,66.98
2019-02-11T06:32:10.592Z,73.69
2019-02-11T06:33:18.661Z,68.49
2019-02-11T06:34:26.710Z,67.13
2019-02-11T06:35:34.768Z,73.94
2019-02-11T06:36:42.806Z,74.26
2019-02-11T06:37:50.873Z,70.39
2019-02-11T06:38:58.939Z,71.52
2019-02-11T06:40:07.004Z,69.34
2019-02-11T06:41:15.083Z,72.66
2019-02-11T06:42:23.093Z,72.66
2019-02-11T06:43:31.165Z,71.14
2019-02-11T06:44:39.197Z,72.85
2019-02-11T06:45:47.267Z,69.44
2019-02-11T06:46:55.326Z,69.53
2019-02-11T06:48:03.380Z,66.88
2019-02-11T06:49:11.438Z,64.33
2019-02-11T06:50:19.477Z,63.20
2019-02-11T06:51:27.607Z,63.48
2019-02-11T06:52:35.593Z,65.09
2019-02-11T06:53:43.661Z,66.13
2019-02-11T06:54:51.702Z,66.13
2019-02-11T06:55:59.777Z,66.98
2019-02-11T06:57:07.823Z,67.17
2019-02-11T06:58:15.880Z,65.56
2019-02-11T06:59:23.941Z,66.22
2019-02-11T07:00:31.976Z,64.71
2019-02-11T07:01:40.033Z,64.71
2019-02-11T07:02:48.099Z,62.15
2019-02-11T07:03:56.162Z,62.91
2019-02-11T07:05:04.217Z,63.39
2019-02-11T07:06:12.263Z,63.10
2019-02-11T07:07:20.380Z,69.34
2019-02-11T07:08:28.388Z,66.98
2019-02-11T07:09:36.466Z,66.50
2019-02-11T07:10:44.497Z,71.14
2019-02-11T07:11:52.561Z,69.06
2019-02-11T07:13:00.620Z,69.06
2019-02-11T07:14:08.676Z,68.49
2019-02-11T07:15:21.969Z,68.87
2019-02-11T07:16:24.779Z,68.40
2019-02-11T07:17:32.840Z,69.44
2019-02-11T07:18:40.926Z,69.82
2019-02-11T07:19:48.960Z,69.72
2019-02-11T07:20:57.049Z,69.63
2019-02-11T07:22:05.110Z,70.10
2019-02-11T07:23:13.118Z,73.79
2019-02-11T07:24:21.183Z,71.80
2019-02-11T07:25:29.235Z,71.52
2019-02-11T07:26:37.293Z,70.39
2019-02-11T07:27:45.359Z,71.14
2019-02-11T07:28:53.405Z,70.95
2019-02-11T07:30:01.466Z,71.61
2019-02-11T07:31:11.098Z,74.55
2019-02-11T07:32:17.568Z,72.09
2019-02-11T07:33:25.630Z,71.90
2019-02-11T07:34:33.697Z,72.09
2019-02-11T07:35:41.739Z,71.14
2019-02-11T07:36:49.809Z,77.67
2019-02-11T07:37:57.861Z,75.40
2019-02-11T07:39:05.915Z,73.88
2019-02-11T07:40:13.986Z,73.22
2019-02-11T07:41:22.010Z,75.49
2019-02-11T07:42:30.093Z,74.74
2019-02-11T07:43:38.142Z,72.37
2019-02-11T07:44:46.191Z,73.03
2019-02-11T07:45:54.252Z,74.26
2019-02-11T07:47:02.291Z,72.85
2019-02-11T07:48:10.364Z,75.40
2019-02-11T07:49:18.426Z,72.09
2019-02-11T07:50:26.477Z,74.74
2019-02-11T07:51:41.931Z,74.36
2019-02-11T07:52:42.590Z,75.59
2019-02-11T07:53:50.655Z,75.59
2019-02-11T07:54:58.706Z,73.60
2019-02-11T07:56:06.763Z,71.52
2019-02-11T07:57:14.837Z,70.48
2019-02-11T07:58:22.882Z,76.00
2019-02-11T07:59:30.934Z,75.15
2019-02-11T08:00:38.983Z,79.03
2019-02-11T08:01:47.050Z,76.67
2019-02-11T08:02:55.125Z,76.10
2019-02-11T08:04:03.161Z,75.81
2019-02-11T08:05:11.217Z,76.76
2019-02-11T08:06:19.278Z,77.14
2019-02-11T08:07:27.326Z,79.50
2019-02-11T08:08:35.389Z,78.85
2019-02-11T08:09:43.441Z,81.40
2019-02-11T08:10:51.488Z,79.50
2019-02-11T08:12:00.397Z,76.38
2019-02-11T08:13:07.602Z,76.57
2019-02-11T08:14:15.685Z,73.26
2019-02-11T08:15:23.719Z,73.54
2019-02-11T08:16:31.782Z,73.26
2019-02-11T08:17:39.869Z,76.29
2019-02-11T08:18:48.034Z,77.51
2019-02-11T08:19:55.980Z,77.51
2019-02-11T08:21:04.027Z,73.54
2019-02-11T08:22:12.064Z,75.09
2019-02-11T08:23:20.124Z,82.29
2019-02-11T08:24:28.205Z,83.90
2019-02-11T08:25:36.263Z,77.94
2019-02-11T08:26:44.295Z,81.06
2019-02-11T08:27:52.361Z,85.42
2019-02-11T08:29:00.423Z,84.66
2019-02-11T08:30:08.518Z,85.70
2019-02-11T08:31:16.531Z,93.75
2019-02-11T08:32:24.587Z,95.45
2019-02-11T08:33:32.658Z,88.07
2019-02-11T08:34:40.707Z,99.99
2019-02-11T08:35:48.782Z,90.34
2019-02-11T08:36:56.843Z,94.37
2019-02-11T08:38:04.876Z,91.33
2019-02-11T08:39:12.948Z,89.63
2019-02-11T08:40:21.004Z,89.82
2019-02-11T08:41:29.100Z,94.93
2019-02-11T08:42:37.106Z,96.07
2019-02-11T08:43:45.187Z,99.99
2019-02-11T08:44:53.255Z,96.07
2019-02-11T08:46:01.294Z,98.25
2019-02-11T08:47:09.350Z,99.99
2019-02-11T08:48:17.399Z,99.99
2019-02-11T08:49:25.472Z,97.02
2019-02-11T08:50:33.530Z,99.77
2019-02-11T08:51:41.563Z,99.99
2019-02-11T08:52:49.688Z,97.02
2019-02-11T08:53:57.685Z,99.99
2019-02-11T08:55:05.759Z,99.48
2019-02-11T08:56:13.825Z,97.49
2019-02-11T08:57:21.867Z,97.59
2019-02-11T08:58:29.948Z,97.02
2019-02-11T08:59:37.996Z,95.69
2019-02-11T09:00:46.063Z,96.55
2019-02-11T09:01:54.120Z,96.55
2019-02-11T09:03:02.179Z,94.37
2019-02-11T09:04:18.635Z,95.88
2019-02-11T09:05:18.297Z,97.97
2019-02-11T09:06:26.358Z,93.04
2019-02-11T09:07:34.395Z,90.29
2019-02-11T09:08:42.565Z,87.92
2019-02-11T09:09:50.523Z,90.58
2019-02-11T09:10:58.665Z,87.16
2019-02-11T09:12:06.639Z,84.70
2019-02-11T09:13:14.733Z,87.64
2019-02-11T09:14:22.835Z,89.63
2019-02-11T09:15:30.824Z,89.15
2019-02-11T09:16:38.874Z,85.65
2019-02-11T09:17:46.935Z,85.65
2019-02-11T09:18:54.995Z,85.84
2019-02-11T09:20:03.055Z,84.32
2019-02-11T09:21:11.112Z,85.74
2019-02-11T09:22:19.159Z,84.13
2019-02-11T09:23:27.219Z,85.93
2019-02-11T09:24:35.327Z,89.44
2019-02-11T09:25:43.334Z,91.24
2019-02-11T09:26:51.386Z,89.82
2019-02-11T09:27:59.458Z,88.78
2019-02-11T09:29:07.521Z,90.58
2019-02-11T09:30:15.583Z,94.04
2019-02-11T09:31:23.640Z,91.00
2019-02-11T09:32:31.676Z,99.99
2019-02-11T09:33:39.763Z,97.92
2019-02-11T09:34:47.863Z,94.98
2019-02-11T09:35:55.881Z,99.25
2019-02-11T09:37:03.938Z,96.41
2019-02-11T09:38:12.806Z,97.83
2019-02-11T09:39:20.084Z,98.54
2019-02-11T09:40:28.099Z,96.36
2019-02-11T09:41:36.162Z,99.77
2019-02-11T09:42:44.210Z,99.99
2019-02-11T09:43:52.275Z,99.99
2019-02-11T09:45:00.330Z,99.99
2019-02-11T09:46:08.416Z,99.99
2019-02-11T09:47:16.459Z,99.99
2019-02-11T09:48:24.519Z,99.99
2019-02-11T09:49:32.601Z,99.99
2019-02-11T09:50:40.650Z,99.99
2019-02-11T09:51:48.706Z,99.99
2019-02-11T09:52:56.762Z,99.99
2019-02-11T09:54:04.832Z,99.99
2019-02-11T09:55:12.889Z,99.99
2019-02-11T09:56:20.962Z,99.99
2019-02-11T09:57:29.002Z,99.99
2019-02-11T09:58:38.136Z,99.99
2019-02-11T09:59:45.160Z,99.99
2019-02-11T10:00:53.174Z,99.99
2019-02-11T10:02:01.236Z,99.99
2019-02-11T10:03:09.307Z,99.99
2019-02-11T10:04:17.369Z,99.99
2019-02-11T10:05:25.439Z,99.99
2019-02-11T10:06:33.481Z,99.99
2019-02-11T10:07:41.515Z,99.99
2019-02-11T10:08:49.608Z,99.99
2019-02-11T10:09:57.723Z,99.99
2019-02-11T10:11:05.736Z,99.99
2019-02-11T10:12:21.046Z,99.99
2019-02-11T10:13:21.837Z,99.99
2019-02-11T10:14:29.909Z,99.99
2019-02-11T10:15:37.977Z,99.99
2019-02-11T10:16:46.050Z,99.99
2019-02-11T10:17:54.105Z,99.99
2019-02-11T10:19:02.132Z,99.99
2019-02-11T10:20:10.219Z,99.99
2019-02-11T10:21:18.291Z,99.99
2019-02-11T10:22:26.342Z,99.99
2019-02-11T10:23:34.400Z,99.99
2019-02-11T10:24:42.453Z,99.99
2019-02-11T10:25:50.528Z,99.99
2019-02-11T10:26:58.585Z,99.99
2019-02-11T10:28:06.638Z,99.99
2019-02-11T10:29:14.711Z,99.99
2019-02-11T10:30:22.750Z,99.99
2019-02-11T10:31:30.847Z,99.99
2019-02-11T10:32:38.886Z,99.99
2019-02-11T10:33:46.944Z,99.99
2019-02-11T10:34:55.021Z,99.99
2019-02-11T10:36:03.055Z,99.99
2019-02-11T10:37:11.121Z,99.99
2019-02-11T10:38:19.437Z,99.99
2019-02-11T10:39:27.240Z,99.99
2019-02-11T10:40:35.357Z,99.99
2019-02-11T10:41:43.416Z,99.99
2019-02-11T10:42:51.419Z,99.99
2019-02-11T10:43:59.546Z,99.99
2019-02-11T10:45:07.550Z,99.99
2019-02-11T10:46:20.785Z,99.99
2019-02-11T10:47:23.687Z,99.99
2019-02-11T10:48:31.726Z,99.99
2019-02-11T10:49:39.797Z,99.99
2019-02-11T10:50:47.852Z,99.99
2019-02-11T10:51:55.915Z,99.99
2019-02-11T10:53:03.954Z,99.99
2019-02-11T10:54:12.034Z,99.99
2019-02-11T10:55:20.131Z,99.99
2019-02-11T10:56:28.168Z,99.99
2019-02-11T10:57:36.203Z,99.99
2019-02-11T10:58:44.265Z,99.99
2019-02-11T10:59:52.325Z,99.99
2019-02-11T11:01:00.429Z,99.99
2019-02-11T11:02:08.469Z,99.99
2019-02-11T11:03:16.526Z,99.99
2019-02-11T11:04:24.591Z,99.99
2019-02-11T11:05:32.672Z,99.99
2019-02-11T11:06:40.703Z,99.99
2019-02-11T11:07:48.782Z,99.99
2019-02-11T11:08:56.842Z,99.99
2019-02-11T11:10:05.089Z,99.99
2019-02-11T11:11:12.947Z,99.99
2019-02-11T11:12:21.023Z,99.99
2019-02-11T11:13:29.321Z,99.99
2019-02-11T11:14:37.134Z,99.99
2019-02-11T11:15:45.206Z,99.99
2019-02-11T11:16:53.251Z,99.99
2019-02-11T11:18:01.308Z,99.99
2019-02-11T11:19:09.409Z,99.99
2019-02-11T11:20:17.715Z,99.99
2019-02-11T11:21:25.557Z,99.99
2019-02-11T11:22:33.768Z,99.99
2019-02-11T11:23:42.146Z,99.99
2019-02-11T11:24:49.690Z,99.99
2019-02-11T11:25:57.764Z,99.99
2019-02-11T11:27:05.807Z,99.99
2019-02-11T11:28:13.997Z,99.99
2019-02-11T11:29:21.916Z,99.99
2019-02-11T11:30:30.054Z,99.99
2019-02-11T11:31:38.069Z,99.99
2019-02-11T11:32:46.124Z,99.99
2019-02-11T11:33:54.184Z,99.99
2019-02-11T11:35:02.206Z,99.99
2019-02-11T11:36:10.289Z,99.99
2019-02-11T11:37:18.389Z,99.99
2019-02-11T11:38:26.407Z,99.99
2019-02-11T11:39:34.488Z,99.99
2019-02-11T11:40:42.538Z,99.99
2019-02-11T11:41:50.599Z,99.99
2019-02-11T11:42:58.675Z,99.99
2019-02-11T11:44:06.800Z,99.99
2019-02-11T11:45:14.784Z,99.99
2019-02-11T11:46:22.863Z,99.99
2019-02-11T11:47:30.897Z,99.99
2019-02-11T11:48:38.956Z,99.99
2019-02-11T11:49:47.045Z,99.99
2019-02-11T11:50:55.092Z,99.99
2019-02-11T11:52:03.126Z,99.99
2019-02-11T11:53:11.326Z,99.99
2019-02-11T11:54:19.265Z,99.99
2019-02-11T11:55:27.311Z,99.99
2019-02-11T11:56:35.415Z,99.99
2019-02-11T11:57:43.439Z,99.99
2019-02-11T11:58:51.510Z,99.99
2019-02-11T11:59:59.570Z,99.99
2019-02-11T12:01:07.629Z,99.99
2019-02-11T12:02:18.665Z,99.99
2019-02-11T12:03:23.756Z,99.99
2019-02-11T12:04:31.771Z,99.99
2019-02-11T12:05:39.854Z,99.99
2019-02-11T12:06:47.929Z,99.99
2019-02-11T12:07:56.008Z,99.99
2019-02-11T12:09:04.072Z,99.99
2019-02-11T12:10:12.072Z,99.99
2019-02-11T12:11:20.181Z,99.99
2019-02-11T12:12:28.212Z,99.99
2019-02-11T12:13:36.291Z,99.99
2019-02-11T12:14:44.333Z,99.99
2019-02-11T12:15:52.378Z,99.99
2019-02-11T12:17:02.835Z,99.99
2019-02-11T12:18:08.520Z,99.99
2019-02-11T12:19:16.577Z,99.99
2019-02-11T12:20:24.658Z,99.99
2019-02-11T12:21:32.770Z,99.99
2019-02-11T12:22:40.759Z,99.99
2019-02-11T12:23:48.820Z,99.99
2019-02-11T12:24:57.027Z,99.99
2019-02-11T12:26:04.935Z,99.99
2019-02-11T12:27:13.011Z,99.99
2019-02-11T12:28:21.064Z,99.99
2019-02-11T12:29:29.132Z,99.99
2019-02-11T12:30:37.178Z,99.99
2019-02-11T12:31:45.229Z,99.99
2019-02-11T12:32:55.118Z,99.99
2019-02-11T12:34:01.358Z,99.99
2019-02-11T12:35:09.429Z,99.99
2019-02-11T12:36:17.472Z,99.99
2019-02-11T12:37:25.537Z,99.99
2019-02-11T12:38:33.949Z,99.99
2019-02-11T12:39:41.649Z,99.99
2019-02-11T12:40:49.732Z,99.99
2019-02-11T12:41:57.778Z,99.99
2019-02-11T12:43:05.843Z,99.99
2019-02-11T12:44:13.897Z,99.99
2019-02-11T12:45:21.958Z,99.99
2019-02-11T12:46:30.029Z,99.99
2019-02-11T12:47:38.073Z,99.99
2019-02-11T12:48:46.138Z,99.99
2019-02-11T12:49:54.187Z,99.99
2019-02-11T12:51:02.222Z,99.99
2019-02-11T12:52:10.328Z,99.99
2019-02-11T12:53:18.381Z,99.99
2019-02-11T12:54:26.436Z,99.99
2019-02-11T12:55:34.486Z,99.99
2019-02-11T12:56:42.540Z,99.99
2019-02-11T12:57:50.646Z,99.99
2019-02-11T12:58:58.671Z,99.99
2019-02-11T13:00:06.724Z,99.99
2019-02-11T13:01:14.791Z,99.99
2019-02-11T13:02:22.854Z,99.99
2019-02-11T13:03:30.939Z,99.99
2019-02-11T13:04:38.993Z,99.99
2019-02-11T13:05:47.056Z,99.99
2019-02-11T13:06:55.108Z,99.99
2019-02-11T13:08:03.166Z,99.99
2019-02-11T13:09:11.222Z,99.99
2019-02-11T13:10:19.285Z,99.99
2019-02-11T13:11:27.360Z,99.99
2019-02-11T13:12:35.448Z,99.99
2019-02-11T13:13:43.462Z,99.99
2019-02-11T13:14:51.523Z,99.99
2019-02-11T13:16:02.288Z,99.99
2019-02-11T13:17:15.229Z,99.99
2019-02-11T13:18:15.786Z,99.99
2019-02-11T13:19:23.767Z,99.99
2019-02-11T13:20:31.807Z,99.99
2019-02-11T13:21:39.918Z,99.99
2019-02-11T13:22:47.982Z,99.99
2019-02-11T13:23:56.027Z,99.99
2019-02-11T13:25:07.891Z,99.99
2019-02-11T13:26:12.118Z,99.99
2019-02-11T13:27:20.181Z,99.99
2019-02-11T13:28:28.248Z,99.99
2019-02-11T13:29:36.332Z,99.99
2019-02-11T13:30:44.368Z,99.99
2019-02-11T13:31:52.448Z,99.99
2019-02-11T13:33:00.499Z,99.99
2019-02-11T13:34:08.559Z,99.99
2019-02-11T13:35:16.615Z,99.99
2019-02-11T13:36:24.689Z,99.99
2019-02-11T13:37:32.753Z,99.99
2019-02-11T13:38:40.783Z,99.99
2019-02-11T13:39:48.868Z,99.99
2019-02-11T13:40:56.912Z,99.99
2019-02-11T13:42:04.975Z,99.99
2019-02-11T13:43:13.041Z,99.99
2019-02-11T13:44:21.095Z,99.99
2019-02-11T13:45:29.152Z,99.99
2019-02-11T13:46:37.217Z,99.99
2019-02-11T13:47:53.040Z,99.99
2019-02-11T13:48:53.341Z,99.99
2019-02-11T13:50:01.385Z,99.99
2019-02-11T13:51:09.454Z,99.99
2019-02-11T13:52:17.506Z,99.99
2019-02-11T13:53:25.570Z,99.99
2019-02-11T13:54:33.629Z,99.99
2019-02-11T13:55:41.672Z,99.99
2019-02-11T13:56:49.758Z,99.99
2019-02-11T13:57:57.862Z,99.99
2019-02-11T13:59:05.873Z,99.99
2019-02-11T14:00:13.934Z,99.99
2019-02-11T14:01:21.975Z,99.99
2019-02-11T14:02:30.095Z,99.99
2019-02-11T14:03:38.094Z,99.99
2019-02-11T14:04:46.180Z,99.99
2019-02-11T14:05:54.264Z,99.99
2019-02-11T14:07:02.270Z,99.99
2019-02-11T14:08:10.355Z,99.99
2019-02-11T14:09:18.443Z,99.99
2019-02-11T14:10:26.469Z,99.99
2019-02-11T14:11:34.533Z,99.99
2019-02-11T14:12:42.601Z,99.99
2019-02-11T14:14:01.889Z,99.99
2019-02-11T14:14:58.712Z,99.99
2019-02-11T14:16:06.829Z,99.99
2019-02-11T14:17:14.848Z,99.99
2019-02-11T14:18:22.897Z,99.99
2019-02-11T14:19:30.984Z,99.99
2019-02-11T14:20:39.018Z,99.99
2019-02-11T14:21:47.078Z,99.99
2019-02-11T14:22:55.147Z,99.99
2019-02-11T14:24:03.247Z,99.99
2019-02-11T14:25:11.254Z,99.99
2019-02-11T14:26:19.309Z,99.99
2019-02-11T14:27:27.367Z,99.99
2019-02-11T14:28:35.486Z,99.99
2019-02-11T14:29:43.523Z,99.99
2019-02-11T14:30:51.599Z,99.99
2019-02-11T14:31:59.614Z,99.99
2019-02-11T14:33:07.875Z,99.99
2019-02-11T14:34:15.755Z,99.99
2019-02-11T14:35:23.799Z,99.99
2019-02-11T14:36:31.856Z,99.99